Time;durP1;ratioP1;P1;durP2;ratioP2;P2;SDS_P1;SDS_P2;PMS_P1;PMS_P2;Temp;Humidity;BMP_temperature;BMP_pressure;BME280_temperature;BME280_humidity;BME280_pressure;Samples;Min_cycle;Max_cycle;Signal;HPM_P1;HPM_P2
2024/01/14 00:01:20;;;;;;;23.07;14.03;;;;;;;2.09;54.24;94500.00;5030602;28;20198;-69
2024/01/14 00:03:47;;;;;;;23.87;13.80;;;;;;;2.10;54.16;94498.28;5030885;28;20184;-68
2024/01/14 00:06:13;;;;;;;21.27;13.73;;;;;;;2.09;54.16;94494.16;5030842;28;20195;-69
2024/01/14 00:08:40;;;;;;;24.10;14.23;;;;;;;2.10;54.18;94505.84;5030868;28;20192;-69
2024/01/14 00:11:08;;;;;;;22.40;14.30;;;;;;;1.83;54.22;94455.34;5030802;28;20200;-66
2024/01/14 00:13:35;;;;;;;25.67;14.77;;;;;;;1.95;54.48;94478.13;5030807;28;20242;-68
2024/01/14 00:16:03;;;;;;;27.07;14.57;;;;;;;2.07;54.20;94494.22;5030915;28;20230;-70
2024/01/14 00:18:30;;;;;;;23.33;14.33;;;;;;;2.06;54.25;94495.13;5030614;28;20226;-69
2024/01/14 00:20:57;;;;;;;23.83;15.10;;;;;;;2.06;54.28;94496.84;5030644;28;20207;-70
2024/01/14 00:23:23;;;;;;;23.33;13.60;;;;;;;2.05;54.46;94488.47;5030493;28;20180;-66
2024/01/14 00:25:50;;;;;;;25.77;15.30;;;;;;;1.91;54.65;94469.13;5030818;28;20184;-71
2024/01/14 00:28:17;;;;;;;26.67;14.57;;;;;;;2.05;54.25;94482.63;5030545;28;20184;-64
2024/01/14 00:30:44;;;;;;;26.60;14.53;;;;;;;2.04;54.48;94493.63;5030555;28;20195;-72
2024/01/14 00:33:12;;;;;;;27.53;15.13;;;;;;;2.05;54.39;94488.47;5030159;28;20655;-67
2024/01/14 00:35:39;;;;;;;27.67;14.63;;;;;;;2.04;54.38;94484.34;5032683;28;20222;-67
2024/01/14 00:38:05;;;;;;;22.97;15.17;;;;;;;2.05;54.35;94480.09;5033266;28;20195;-68
2024/01/14 00:40:32;;;;;;;23.90;14.57;;;;;;;2.04;54.43;94486.06;5046176;28;20188;-69
2024/01/14 00:42:59;;;;;;;29.70;14.90;;;;;;;2.03;54.34;94485.25;5031427;28;20187;-67
2024/01/14 00:45:26;;;;;;;24.77;13.70;;;;;;;2.04;54.46;94491.91;5030243;28;20198;-71
2024/01/14 00:47:53;;;;;;;25.97;13.80;;;;;;;1.98;54.44;94482.97;5030308;28;20614;-66
2024/01/14 00:50:21;;;;;;;25.90;14.30;;;;;;;2.01;54.53;94492.06;5030198;28;20238;-71
2024/01/14 00:52:48;;;;;;;26.37;14.17;;;;;;;1.96;54.48;94471.38;5030482;28;20191;-69
2024/01/14 00:55:15;;;;;;;27.00;15.17;;;;;;;2.00;54.53;94472.81;5029955;28;20337;-64
2024/01/14 00:57:42;;;;;;;22.23;13.60;;;;;;;1.90;54.62;94459.13;5030496;28;20180;-66
2024/01/14 01:00:10;;;;;;;23.50;15.37;;;;;;;1.97;54.48;94471.28;5029625;28;20231;-69
2024/01/14 01:02:36;;;;;;;26.90;14.80;;;;;;;1.98;54.62;94472.06;5026614;28;20226;-67
2024/01/14 01:05:03;;;;;;;23.80;14.93;;;;;;;1.96;54.50;94471.38;5029837;28;20260;-70
2024/01/14 01:07:32;;;;;;;27.83;15.50;;;;;;;1.78;54.58;94442.22;5029789;28;20196;-69
2024/01/14 01:09:58;;;;;;;25.93;14.90;;;;;;;1.93;54.48;94464.78;5029459;28;20759;-71
2024/01/14 01:12:25;;;;;;;21.20;14.53;;;;;;;1.91;54.63;94464.09;5030175;28;20191;-69
2024/01/14 01:14:52;;;;;;;24.87;15.60;;;;;;;1.90;54.57;94459.94;5033695;28;20629;-70
2024/01/14 01:17:18;;;;;;;29.57;16.60;;;;;;;1.81;54.63;94439.50;5034788;28;20643;-71
2024/01/14 01:19:45;;;;;;;25.80;16.07;;;;;;;1.89;54.75;94454.97;5034493;28;20187;-63
2024/01/14 01:22:12;;;;;;;26.63;16.87;;;;;;;1.86;54.66;94453.47;5033843;28;20592;-63
2024/01/14 01:24:40;;;;;;;32.93;17.93;;;;;;;1.51;54.52;94402.59;5034086;28;20633;-64
2024/01/14 01:27:07;;;;;;;29.27;17.53;;;;;;;1.64;54.81;94418.66;5033854;28;20180;-67
2024/01/14 01:29:34;;;;;;;37.17;19.07;;;;;;;1.56;54.62;94407.41;5033849;28;20195;-66
2024/01/14 01:32:00;;;;;;;30.30;18.17;;;;;;;1.82;54.82;94441.94;5033356;28;20192;-64
2024/01/14 01:34:27;;;;;;;36.43;19.40;;;;;;;1.81;54.84;94431.94;5033686;28;20196;-64
2024/01/14 01:36:54;;;;;;;33.30;18.63;;;;;;;1.80;54.88;94425.28;5033254;28;20206;-68
2024/01/14 01:39:21;;;;;;;33.83;19.80;;;;;;;1.78;54.76;94430.44;5033546;28;20192;-67
2024/01/14 01:41:50;;;;;;;29.97;18.13;;;;;;;1.70;54.87;94413.22;5033586;28;20246;-65
2024/01/14 01:44:17;;;;;;;32.07;19.57;;;;;;;1.65;54.77;94415.22;5033436;28;20636;-66
2024/01/14 01:46:44;;;;;;;31.70;19.17;;;;;;;1.75;55.05;94423.03;5033234;28;20583;-67
2024/01/14 01:49:11;;;;;;;36.80;20.73;;;;;;;1.55;54.91;94395.69;5033787;28;20183;-71
2024/01/14 01:51:41;;;;;;;37.50;20.73;;;;;;;1.73;54.67;94420.63;5033295;28;20555;-69
2024/01/14 01:54:09;;;;;;;36.40;20.53;;;;;;;1.72;55.07;94418.16;5033684;28;20227;-70
2024/01/14 01:56:38;;;;;;;32.40;19.90;;;;;;;1.58;54.83;94395.50;5033624;28;20251;-70
2024/01/14 01:59:07;;;;;;;36.80;20.00;;;;;;;1.70;54.97;94409.91;5033252;28;20637;-68
2024/01/14 02:01:35;;;;;;;35.90;20.87;;;;;;;1.41;54.97;94361.22;5033096;28;20257;-67
2024/01/14 02:04:03;;;;;;;38.17;20.73;;;;;;;1.68;54.95;94407.47;5033163;28;20307;-69
2024/01/14 02:06:33;;;;;;;35.97;18.50;;;;;;;1.64;55.04;94390.94;5033018;28;20198;-66
2024/01/14 02:09:00;;;;;;;35.40;20.50;;;;;;;1.66;55.04;94401.72;5032702;28;20194;-69
2024/01/14 02:11:26;;;;;;;38.07;19.90;;;;;;;1.65;54.90;94395.06;5033108;28;20629;-72
2024/01/14 02:13:53;;;;;;;32.03;18.70;;;;;;;1.58;55.04;94386.25;5033090;28;20199;-69
2024/01/14 02:16:21;;;;;;;38.43;19.43;;;;;;;1.64;54.82;94402.69;5032792;28;20230;-70
2024/01/14 02:18:48;;;;;;;36.13;20.50;;;;;;;1.63;55.27;94406.94;5032733;28;20254;-68
2024/01/14 02:21:20;;;;;;;39.90;21.03;;;;;;;1.61;55.03;94406.22;5033472;28;20207;-67
2024/01/14 02:23:54;;;;;;;29.23;19.47;;;;;;;1.16;55.23;94332.44;5032813;28;20214;-70
2024/01/14 02:26:22;;;;;;;34.70;20.00;;;;;;;1.32;55.02;94357.56;5032329;28;20207;-72
2024/01/14 02:28:49;;;;;;;37.67;21.43;;;;;;;1.60;55.11;94403.78;5032741;28;20566;-68
2024/01/14 02:31:16;;;;;;;30.60;19.53;;;;;;;1.50;54.90;94380.84;5032546;28;20195;-69
2024/01/14 02:33:43;;;;;;;40.47;19.33;;;;;;;1.57;55.05;94403.97;5032276;28;20194;-70
2024/01/14 02:36:10;;;;;;;35.17;20.63;;;;;;;1.47;55.26;94394.44;5032469;28;20215;-70
2024/01/14 02:38:36;;;;;;;32.20;18.60;;;;;;;1.53;55.13;94389.94;5032315;28;20188;-71
2024/01/14 02:41:03;;;;;;;32.27;18.93;;;;;;;1.54;55.04;94397.41;5032274;28;20192;-67
2024/01/14 02:43:31;;;;;;;31.17;18.60;;;;;;;1.13;54.95;94339.41;5032019;28;20246;-65
2024/01/14 02:45:58;;;;;;;30.83;17.67;;;;;;;1.53;55.21;94397.50;5032287;28;20629;-70
2024/01/14 02:48:25;;;;;;;31.93;19.23;;;;;;;1.45;55.13;94385.34;5032309;28;20559;-69
2024/01/14 02:50:51;;;;;;;35.53;19.30;;;;;;;1.44;55.33;94386.25;5031834;28;20191;-65
2024/01/14 02:53:18;;;;;;;32.60;18.33;;;;;;;1.42;55.45;94375.44;5032147;28;20255;-69
2024/01/14 02:55:45;;;;;;;34.27;19.40;;;;;;;1.48;55.15;94380.94;5031998;28;20318;-70
2024/01/14 02:58:12;;;;;;;35.97;18.30;;;;;;;1.48;55.03;94385.16;5032022;28;20191;-71
2024/01/14 03:00:40;;;;;;;31.97;18.13;;;;;;;1.48;55.12;94382.66;5031974;28;20231;-71
2024/01/14 03:03:07;;;;;;;30.30;18.73;;;;;;;1.47;55.11;94374.28;5032494;28;20202;-67
2024/01/14 03:05:34;;;;;;;30.53;18.30;;;;;;;1.22;55.21;94339.66;5032280;28;20195;-68
2024/01/14 03:08:00;;;;;;;29.07;18.37;;;;;;;1.45;55.11;94380.31;5033075;28;20195;-67
2024/01/14 03:10:27;;;;;;;31.27;18.90;;;;;;;1.44;55.12;94384.53;5036737;28;20196;-69
2024/01/14 03:12:54;;;;;;;28.40;17.50;;;;;;;1.44;55.47;94378.69;5043936;28;20195;-64
2024/01/14 03:15:21;;;;;;;29.93;18.07;;;;;;;1.44;55.44;94382.03;5046725;28;20223;-67
2024/01/14 03:17:49;;;;;;;32.00;19.17;;;;;;;1.44;55.49;94381.22;5038383;28;20192;-65
2024/01/14 03:20:16;;;;;;;29.67;18.37;;;;;;;1.42;55.27;94367.88;5032679;28;20194;-66
2024/01/14 03:22:43;;;;;;;30.27;17.13;;;;;;;1.42;55.21;94377.97;5030766;28;20556;-67
2024/01/14 03:25:10;;;;;;;28.53;17.90;;;;;;;1.41;55.46;94376.34;5031330;28;20651;-63
2024/01/14 03:27:37;;;;;;;30.47;17.53;;;;;;;1.40;55.46;94372.22;5030723;28;20180;-67
2024/01/14 03:30:04;;;;;;;29.47;16.70;;;;;;;1.40;55.50;94372.22;5031466;28;20536;-66
2024/01/14 03:32:31;;;;;;;29.27;15.90;;;;;;;1.40;55.43;94369.69;5030895;28;20215;-69
2024/01/14 03:34:59;;;;;;;27.17;16.27;;;;;;;1.40;55.65;94362.94;5030939;28;20196;-70
2024/01/14 03:37:26;;;;;;;30.33;16.53;;;;;;;1.41;55.54;94358.72;5029755;28;20191;-68
2024/01/14 03:39:53;;;;;;;26.27;16.57;;;;;;;1.32;55.48;94359.25;5031246;28;20191;-63
2024/01/14 03:42:20;;;;;;;27.30;17.00;;;;;;;1.37;55.23;94374.91;5030474;28;20198;-65
2024/01/14 03:44:47;;;;;;;30.27;16.53;;;;;;;1.40;55.59;94379.78;5031341;28;20188;-66
2024/01/14 03:47:14;;;;;;;30.87;16.27;;;;;;;1.40;55.42;94377.25;5030960;28;20222;-63
2024/01/14 03:49:40;;;;;;;28.33;15.40;;;;;;;1.39;55.50;94386.53;5031290;28;20184;-67
2024/01/14 03:52:09;;;;;;;29.90;15.50;;;;;;;1.27;55.51;94366.28;5030421;28;20188;-65
2024/01/14 03:54:35;;;;;;;25.47;15.27;;;;;;;1.38;55.36;94392.47;5031185;28;20222;-70
2024/01/14 03:57:02;;;;;;;22.67;15.03;;;;;;;1.37;55.35;94397.56;5030732;28;20253;-69
2024/01/14 03:59:29;;;;;;;25.27;16.40;;;;;;;1.32;55.49;94400.38;5030579;28;20227;-69
2024/01/14 04:01:55;;;;;;;26.60;15.37;;;;;;;1.34;55.54;94403.63;5030799;28;20609;-71
2024/01/14 04:04:22;;;;;;;31.37;17.03;;;;;;;1.35;55.55;94406.94;5030378;28;20639;-69
2024/01/14 04:06:49;;;;;;;28.47;16.70;;;;;;;1.32;55.75;94407.94;5030900;28;20199;-71
2024/01/14 04:09:17;;;;;;;32.37;17.30;;;;;;;1.33;55.62;94403.69;5030745;28;20578;-70
2024/01/14 04:11:44;;;;;;;28.33;17.20;;;;;;;1.10;55.47;94360.53;5030564;28;20191;-71
2024/01/14 04:14:11;;;;;;;29.63;16.43;;;;;;;1.30;55.64;94399.66;5030413;28;20231;-67
2024/01/14 04:16:37;;;;;;;33.23;18.70;;;;;;;1.29;55.41;94397.22;5030487;28;20233;-70
2024/01/14 04:19:04;;;;;;;34.27;19.40;;;;;;;1.28;55.73;94398.94;5030332;28;20230;-69
2024/01/14 04:21:31;;;;;;;32.90;17.97;;;;;;;1.22;55.78;94387.50;5030332;28;20184;-68
2024/01/14 04:23:59;;;;;;;31.10;18.20;;;;;;;1.25;55.64;94381.47;5030339;28;20688;-68
2024/01/14 04:26:27;;;;;;;30.47;17.20;;;;;;;1.20;55.60;94373.38;5030279;28;20188;-71
2024/01/14 04:28:54;;;;;;;31.03;18.43;;;;;;;1.22;55.58;94381.66;5030450;28;20218;-67
2024/01/14 04:31:21;;;;;;;29.00;17.87;;;;;;;1.21;55.62;94383.38;5029916;28;20203;-65
2024/01/14 04:33:48;;;;;;;36.23;18.83;;;;;;;1.18;55.44;94372.66;5030289;28;20214;-69
2024/01/14 04:36:15;;;;;;;32.17;19.93;;;;;;;1.18;55.78;94376.00;5029994;28;20223;-71
2024/01/14 04:38:43;;;;;;;34.43;19.47;;;;;;;1.18;55.52;94382.75;5030450;28;20207;-69
2024/01/14 04:41:10;;;;;;;37.23;20.40;;;;;;;1.17;55.58;94386.16;5029711;28;20198;-71
2024/01/14 04:43:38;;;;;;;34.10;18.57;;;;;;;0.41;55.51;94260.50;5030189;28;20190;-69
2024/01/14 04:46:09;;;;;;;35.40;20.57;;;;;;;1.16;55.66;94382.81;5030191;28;20602;-67
2024/01/14 04:48:35;;;;;;;42.07;21.87;;;;;;;0.94;55.61;94350.50;5029984;28;20711;-67
2024/01/14 04:51:02;;;;;;;32.07;20.53;;;;;;;1.13;55.77;94382.19;5029580;28;20187;-67
2024/01/14 04:53:29;;;;;;;37.40;20.53;;;;;;;1.09;55.57;94381.56;5029959;28;20548;-71
2024/01/14 04:55:56;;;;;;;39.83;20.70;;;;;;;0.94;55.66;94378.19;5029298;28;20573;-64
2024/01/14 04:58:22;;;;;;;34.37;20.13;;;;;;;1.12;55.64;94385.59;5029927;28;20200;-65
2024/01/14 05:00:51;;;;;;;35.80;20.63;;;;;;;1.11;55.81;94391.53;5029493;28;20219;-64
2024/01/14 05:03:17;;;;;;;35.87;21.37;;;;;;;1.09;55.51;94388.31;5029753;28;20191;-66
2024/01/14 05:05:44;;;;;;;36.33;21.03;;;;;;;1.10;55.49;94397.47;5029644;28;20199;-70
2024/01/14 05:08:11;;;;;;;36.47;21.27;;;;;;;1.09;55.51;94391.63;5029959;28;20281;-71
2024/01/14 05:10:38;;;;;;;36.60;21.13;;;;;;;1.08;55.53;94390.03;5029425;28;20179;-68
2024/01/14 05:13:05;;;;;;;36.97;22.60;;;;;;;1.04;55.75;94380.19;5029751;28;20183;-71
2024/01/14 05:15:31;;;;;;;43.10;23.67;;;;;;;1.06;55.61;94391.81;5029925;28;20218;-66
2024/01/14 05:17:59;;;;;;;33.73;20.17;;;;;;;1.06;55.66;94385.97;5029279;28;20199;-70
2024/01/14 05:20:27;;;;;;;34.13;20.57;;;;;;;1.04;55.68;94373.47;5029408;28;20249;-67
2024/01/14 05:22:54;;;;;;;42.27;21.60;;;;;;;1.02;55.95;94376.97;5029573;28;20207;-70
2024/01/14 05:25:21;;;;;;;38.00;21.57;;;;;;;1.04;55.70;94381.03;5029524;28;20204;-68
2024/01/14 05:27:48;;;;;;;40.63;21.90;;;;;;;1.04;55.86;94375.16;5029429;28;20211;-70
2024/01/14 05:30:15;;;;;;;37.67;21.50;;;;;;;0.78;55.79;94339.72;5029583;28;20187;-70
2024/01/14 05:32:42;;;;;;;37.43;21.87;;;;;;;1.03;55.87;94373.53;5029615;28;20243;-71
2024/01/14 05:35:10;;;;;;;40.27;22.07;;;;;;;0.84;56.00;94341.88;5029939;28;20210;-70
2024/01/14 05:37:36;;;;;;;40.17;21.67;;;;;;;1.05;55.78;94385.16;5029754;28;20216;-67
2024/01/14 05:40:05;;;;;;;34.43;20.43;;;;;;;0.99;55.71;94362.84;5029599;28;20191;-67
2024/01/14 05:42:31;;;;;;;40.00;22.20;;;;;;;1.05;56.02;94381.84;5030034;28;20215;-69
2024/01/14 05:44:58;;;;;;;39.03;22.53;;;;;;;1.05;55.77;94382.63;5032082;28;20200;-67
2024/01/14 05:47:25;;;;;;;38.57;23.07;;;;;;;1.06;55.89;94380.94;5039575;28;20188;-65
2024/01/14 05:49:52;;;;;;;40.13;22.50;;;;;;;1.05;55.79;94377.59;5049414;28;20188;-69
2024/01/14 05:52:20;;;;;;;39.00;21.63;;;;;;;0.80;56.03;94337.13;5035116;28;20196;-68
2024/01/14 05:54:47;;;;;;;35.87;20.73;;;;;;;0.31;55.85;94260.22;5030030;28;20183;-67
2024/01/14 05:57:13;;;;;;;40.03;21.17;;;;;;;1.07;55.72;94373.28;5029565;28;20207;-68
2024/01/14 05:59:41;;;;;;;36.80;21.77;;;;;;;1.09;55.78;94384.09;5029241;28;20228;-68
2024/01/14 06:02:09;;;;;;;39.70;21.60;;;;;;;1.10;55.77;94374.81;5032850;28;20643;-66
2024/01/14 06:04:35;;;;;;;37.43;20.80;;;;;;;1.12;55.65;94385.59;5033171;28;20283;-68
2024/01/14 06:07:02;;;;;;;36.33;21.87;;;;;;;0.81;55.86;94334.50;5033094;28;20708;-65
2024/01/14 06:09:31;;;;;;;35.10;20.20;;;;;;;1.09;55.80;94376.53;5032957;28;20192;-72
2024/01/14 06:11:58;;;;;;;39.37;21.17;;;;;;;1.20;55.55;94370.84;5033336;28;20254;-66
2024/01/14 06:14:24;;;;;;;38.07;20.73;;;;;;;1.23;55.62;94371.50;5032555;28;20187;-65
2024/01/14 06:16:51;;;;;;;36.87;21.90;;;;;;;1.28;55.76;94363.66;5033025;28;20215;-65
2024/01/14 06:19:18;;;;;;;40.53;22.40;;;;;;;1.32;55.61;94362.59;5032855;28;20195;-69
2024/01/14 06:21:45;;;;;;;40.50;23.43;;;;;;;1.37;55.63;94355.56;5032560;28;20196;-68
2024/01/14 06:24:14;;;;;;;30.93;20.17;;;;;;;1.31;55.53;94342.53;5032775;28;20191;-72
2024/01/14 06:26:42;;;;;;;38.67;21.77;;;;;;;1.49;55.66;94359.88;5032619;28;20198;-68
2024/01/14 06:29:09;;;;;;;34.93;22.33;;;;;;;1.46;55.51;94339.09;5032317;28;20675;-69
2024/01/14 06:31:36;;;;;;;35.43;20.80;;;;;;;1.73;55.32;94362.66;5031839;28;20196;-70
2024/01/14 06:34:04;;;;;;;36.70;21.13;;;;;;;1.88;54.73;94347.47;5032398;28;20195;-71
2024/01/14 06:36:31;;;;;;;36.00;20.67;;;;;;;2.32;54.43;94364.91;5032406;28;20242;-68
2024/01/14 06:38:57;;;;;;;36.03;20.90;;;;;;;2.64;54.02;94345.19;5032511;28;20191;-71
2024/01/14 06:41:24;;;;;;;34.57;20.57;;;;;;;3.10;53.97;94362.41;5032006;28;20202;-70
2024/01/14 06:43:53;;;;;;;31.93;20.33;;;;;;;3.44;53.55;94355.09;5032598;28;20187;-71
2024/01/14 06:46:19;;;;;;;38.57;21.23;;;;;;;3.75;53.54;94353.81;5032119;28;21030;-69
2024/01/14 06:48:46;;;;;;;34.90;20.90;;;;;;;4.14;53.06;94355.31;5032375;28;20184;-70
2024/01/14 06:51:13;;;;;;;27.57;19.03;;;;;;;4.41;53.07;94321.41;5032250;28;20216;-70
2024/01/14 06:53:40;;;;;;;31.90;19.50;;;;;;;5.15;52.91;94344.72;5032947;28;20184;-71
2024/01/14 06:56:07;;;;;;;32.33;19.67;;;;;;;5.69;52.70;94349.09;5032418;28;20320;-69
2024/01/14 06:58:34;;;;;;;30.70;19.70;;;;;;;6.20;52.65;94336.69;5032080;28;20218;-66
2024/01/14 07:01:03;;;;;;;34.70;20.03;;;;;;;6.76;52.40;94345.81;5031739;28;20315;-73
2024/01/14 07:03:30;;;;;;;30.03;18.80;;;;;;;7.33;52.06;94336.13;5032223;28;20191;-69
2024/01/14 07:05:57;;;;;;;30.13;19.50;;;;;;;7.85;51.72;94331.75;5032083;28;20576;-71
2024/01/14 07:08:25;;;;;;;30.67;20.43;;;;;;;8.19;51.28;94314.41;5030930;28;20571;-68
2024/01/14 07:10:52;;;;;;;32.00;20.20;;;;;;;8.74;50.52;94327.47;5031694;28;20183;-69
2024/01/14 07:13:19;;;;;;;33.07;19.87;;;;;;;9.27;50.08;94337.16;5031693;28;20192;-66
2024/01/14 07:15:45;;;;;;;35.23;20.07;;;;;;;9.36;49.76;94284.50;5031931;28;20192;-69
2024/01/14 07:18:14;;;;;;;30.10;20.03;;;;;;;9.93;48.95;94338.78;5031347;28;20227;-68
2024/01/14 07:20:41;;;;;;;29.70;19.20;;;;;;;10.03;48.42;94329.34;5030416;28;20184;-68
2024/01/14 07:23:08;;;;;;;32.50;20.87;;;;;;;10.19;47.83;94334.63;5043333;28;20665;-70
2024/01/14 07:25:35;;;;;;;33.33;20.60;;;;;;;10.43;47.20;94336.63;5034677;28;20298;-67
2024/01/14 07:28:01;;;;;;;32.57;20.97;;;;;;;10.75;47.10;94340.41;5032129;28;20261;-67
2024/01/14 07:30:29;;;;;;;32.67;20.53;;;;;;;11.17;46.89;94352.56;5031505;28;20184;-64
2024/01/14 07:32:56;;;;;;;34.07;21.20;;;;;;;11.45;46.59;94331.00;5032409;28;20198;-71
2024/01/14 07:35:25;;;;;;;30.60;20.33;;;;;;;12.04;46.11;94361.88;5031361;28;20195;-70
2024/01/14 07:37:52;;;;;;;36.00;21.53;;;;;;;12.45;45.63;94362.81;5031142;28;20235;-65
2024/01/14 07:40:21;;;;;;;30.17;20.43;;;;;;;12.79;45.15;94359.31;5030746;28;20663;-66
2024/01/14 07:42:47;;;;;;;28.93;20.70;;;;;;;13.12;44.63;94349.03;5020254;28;20247;-67
2024/01/14 07:45:14;;;;;;;33.43;21.80;;;;;;;13.45;44.27;94342.16;5008950;28;20208;-65
2024/01/14 07:47:41;;;;;;;29.50;20.50;;;;;;;13.78;43.93;94337.72;5019949;28;20211;-71
2024/01/14 07:50:08;;;;;;;35.10;21.13;;;;;;;14.08;43.50;94337.94;5028794;28;20249;-74
2024/01/14 07:52:37;;;;;;;30.43;22.53;;;;;;;14.18;43.19;94313.59;5028770;28;20291;-67
2024/01/14 07:55:04;;;;;;;33.10;22.17;;;;;;;14.51;42.71;94334.84;5028342;28;20207;-67
2024/01/14 07:57:30;;;;;;;30.13;21.20;;;;;;;14.44;42.56;94335.66;5028554;28;20223;-71
2024/01/14 07:59:57;;;;;;;34.07;22.40;;;;;;;14.36;42.46;94336.50;5028595;28;20234;-67
2024/01/14 08:02:24;;;;;;;32.33;21.63;;;;;;;14.19;42.41;94330.63;5028942;28;20199;-64
2024/01/14 08:04:51;;;;;;;35.67;22.60;;;;;;;13.95;42.49;94321.28;5028315;28;20187;-64
2024/01/14 08:07:17;;;;;;;31.63;21.60;;;;;;;13.88;42.37;94317.75;5027621;28;20192;-71
2024/01/14 08:09:45;;;;;;;31.00;21.80;;;;;;;13.92;41.99;94305.38;5028444;28;20192;-67
2024/01/14 08:12:12;;;;;;;43.93;22.00;;;;;;;13.91;41.61;94298.66;5027606;28;20210;-69
2024/01/14 08:14:39;;;;;;;31.83;22.27;;;;;;;13.85;41.48;94319.84;5028723;28;20195;-69
2024/01/14 08:17:06;;;;;;;37.87;22.73;;;;;;;13.99;40.91;94317.41;5029349;28;20687;-67
2024/01/14 08:19:32;;;;;;;37.70;22.10;;;;;;;14.09;40.46;94316.41;5029914;28;20647;-66
2024/01/14 08:21:59;;;;;;;32.83;22.10;;;;;;;13.86;40.48;94317.13;5037805;28;20203;-69
2024/01/14 08:24:26;;;;;;;35.07;20.77;;;;;;;13.50;40.67;94314.19;5041649;28;20659;-66
2024/01/14 08:26:54;;;;;;;36.07;20.70;;;;;;;13.18;40.81;94320.97;5029316;28;20587;-69
2024/01/14 08:29:21;;;;;;;31.07;20.67;;;;;;;12.62;41.05;94285.88;5028683;28;20263;-67
2024/01/14 08:31:48;;;;;;;27.70;20.33;;;;;;;12.46;41.44;94307.19;5027286;28;20206;-67
2024/01/14 08:34:14;;;;;;;33.30;20.60;;;;;;;12.33;41.47;94323.03;5027924;28;20188;-70
2024/01/14 08:36:41;;;;;;;32.03;21.57;;;;;;;12.17;41.47;94338.34;5028062;28;20184;-67
2024/01/14 08:39:08;;;;;;;31.80;20.90;;;;;;;11.93;41.62;94321.16;5028074;28;20222;-69
2024/01/14 08:41:35;;;;;;;36.43;22.53;;;;;;;11.78;41.79;94333.72;5027731;28;20196;-70
2024/01/14 08:44:06;;;;;;;34.77;23.63;;;;;;;11.53;41.89;94312.31;5027804;28;20870;-72
2024/01/14 08:46:33;;;;;;;37.00;22.47;;;;;;;11.49;42.04;94323.81;5027908;28;20207;-73
2024/01/14 08:49:00;;;;;;;37.47;22.10;;;;;;;11.54;41.83;94317.28;5027365;28;20192;-71
2024/01/14 08:51:27;;;;;;;34.97;22.30;;;;;;;11.58;41.60;94317.00;5027741;28;20663;-67
2024/01/14 08:53:58;;;;;;;34.70;20.97;;;;;;;11.44;41.56;94323.47;5027200;28;20556;-70
2024/01/14 08:56:25;;;;;;;27.13;19.43;;;;;;;11.51;46.28;94324.47;5027518;28;20713;-71
2024/01/14 08:58:52;;;;;;;32.13;17.80;;;;;;;11.51;46.10;94317.59;5026664;28;20215;-69
2024/01/14 09:01:20;;;;;;;28.90;19.37;;;;;;;11.45;47.42;94307.97;5027311;28;20195;-70
2024/01/14 09:03:47;;;;;;;27.23;19.17;;;;;;;11.30;48.11;94297.47;5027616;28;20829;-70
2024/01/14 09:06:13;;;;;;;28.97;18.97;;;;;;;11.13;48.17;94300.09;5027704;28;20207;-68
2024/01/14 09:08:40;;;;;;;28.77;17.97;;;;;;;10.98;47.92;94312.63;5027444;28;20200;-64
2024/01/14 09:11:08;;;;;;;32.07;19.37;;;;;;;10.86;47.78;94311.25;5027654;28;20204;-68
2024/01/14 09:13:35;;;;;;;29.87;19.60;;;;;;;10.72;47.56;94303.16;5027083;28;20730;-73
2024/01/14 09:16:02;;;;;;;27.07;18.40;;;;;;;10.65;47.28;94309.81;5028011;28;20195;-73
2024/01/14 09:18:30;;;;;;;29.20;19.17;;;;;;;10.61;46.80;94315.38;5026600;28;20254;-66
2024/01/14 09:20:57;;;;;;;31.60;20.03;;;;;;;10.53;46.68;94311.81;5027133;28;20199;-78
2024/01/14 09:23:24;;;;;;;27.77;18.47;;;;;;;10.48;46.39;94311.44;5027744;28;20191;-69
2024/01/14 09:25:51;;;;;;;29.10;19.10;;;;;;;10.35;46.04;94294.84;5027557;28;20192;-70
2024/01/14 09:28:18;;;;;;;20.13;14.53;;;;;;;10.66;67.57;94298.63;5026898;28;20195;-74
2024/01/14 09:30:45;;;;;;;19.10;13.43;;;;;;;11.31;72.66;94300.81;5027229;28;20235;-71
2024/01/14 09:33:14;;;;;;;20.97;15.23;;;;;;;11.79;70.15;94266.97;5027255;28;20242;-71
2024/01/14 09:35:43;;;;;;;23.57;15.87;;;;;;;12.45;66.50;94279.94;5028547;28;20245;-75
2024/01/14 09:38:10;;;;;;;23.60;15.63;;;;;;;12.94;64.58;94277.34;5031062;28;20667;-66
2024/01/14 09:40:37;;;;;;;24.97;15.73;;;;;;;13.34;61.97;94268.78;5031560;28;20245;-75
2024/01/14 09:43:05;;;;;;;27.73;15.90;;;;;;;13.71;61.48;94270.75;5031389;28;20209;-74
2024/01/14 09:45:34;;;;;;;21.67;14.13;;;;;;;14.18;63.95;94274.25;5046309;28;20226;-74
2024/01/14 09:48:02;;;;;;;22.87;15.13;;;;;;;14.58;61.21;94272.38;5035974;28;20199;-72
2024/01/14 09:50:29;;;;;;;28.37;17.50;;;;;;;14.82;58.46;94276.56;5031152;28;20191;-71
2024/01/14 09:52:59;;;;;;;28.10;16.97;;;;;;;14.85;56.25;94271.84;5031990;28;20207;-69
2024/01/14 09:55:26;;;;;;;30.53;16.80;;;;;;;14.76;54.51;94268.53;5031122;28;20191;-70
2024/01/14 09:57:53;;;;;;;23.53;16.43;;;;;;;14.59;52.90;94271.41;5030926;28;20203;-69
2024/01/14 10:00:23;;;;;;;24.97;17.60;;;;;;;14.38;51.87;94264.28;5030739;28;20231;-72
2024/01/14 10:02:51;;;;;;;22.77;17.77;;;;;;;14.19;50.98;94268.13;5031148;28;20183;-67
2024/01/14 10:05:18;;;;;;;32.20;18.80;;;;;;;13.98;50.51;94261.00;5030382;28;20293;-68
2024/01/14 10:07:47;;;;;;;26.33;18.10;;;;;;;13.78;49.78;94265.78;5028628;28;20192;-63
2024/01/14 10:10:15;;;;;;;28.07;18.93;;;;;;;13.60;49.19;94254.91;5030690;28;20286;-64
2024/01/14 10:12:42;;;;;;;28.43;19.47;;;;;;;13.41;48.95;94264.59;5017103;28;20200;-63
2024/01/14 10:15:09;;;;;;;27.47;17.60;;;;;;;13.20;48.45;94246.34;5021951;28;20201;-68
2024/01/14 10:17:36;;;;;;;30.30;19.03;;;;;;;13.04;48.38;94248.00;5030586;28;20207;-68
2024/01/14 10:20:03;;;;;;;32.17;19.73;;;;;;;12.90;47.79;94251.22;5026357;28;20204;-67
2024/01/14 10:22:30;;;;;;;30.17;19.67;;;;;;;12.82;47.72;94243.50;5028713;28;20196;-64
2024/01/14 10:24:57;;;;;;;29.97;20.17;;;;;;;12.47;47.40;94203.63;5028788;28;20190;-69
2024/01/14 10:27:27;;;;;;;30.37;19.03;;;;;;;12.59;47.15;94242.59;5028805;28;20208;-69
2024/01/14 10:29:53;;;;;;;31.30;20.33;;;;;;;12.42;47.14;94234.09;5026337;28;20241;-68
2024/01/14 10:32:20;;;;;;;29.93;20.63;;;;;;;12.29;47.08;94237.91;5030937;28;20639;-64
2024/01/14 10:34:47;;;;;;;29.30;18.83;;;;;;;12.13;46.91;94219.16;5031296;28;20199;-66
2024/01/14 10:37:14;;;;;;;33.40;20.10;;;;;;;12.10;46.54;94222.84;5030889;28;20196;-62
2024/01/14 10:39:41;;;;;;;28.60;20.00;;;;;;;12.05;46.50;94217.41;5025544;28;20198;-67
2024/01/14 10:42:08;;;;;;;35.73;19.73;;;;;;;12.03;46.45;94209.06;5031289;28;20199;-70
2024/01/14 10:44:37;;;;;;;35.33;19.40;;;;;;;12.00;46.31;94206.81;5031754;28;20239;-69
2024/01/14 10:47:08;;;;;;;31.23;20.67;;;;;;;11.99;46.04;94198.31;5030239;28;20717;-63
2024/01/14 10:49:37;;;;;;;28.57;18.43;;;;;;;11.98;45.85;94181.34;5026651;28;20294;-68
2024/01/14 10:52:10;;;;;;;33.17;20.33;;;;;;;11.95;45.56;94176.53;5028684;28;20195;-71
2024/01/14 10:54:44;;;;;;;29.03;20.20;;;;;;;12.02;45.64;94184.41;5030832;28;20268;-64
2024/01/14 10:57:22;;;;;;;31.33;19.60;;;;;;;12.01;45.58;94170.78;5035909;28;20183;-70
2024/01/14 10:59:55;;;;;;;30.83;20.80;;;;;;;12.10;45.31;94184.41;5030765;28;20219;-67
2024/01/14 11:02:22;;;;;;;37.17;21.40;;;;;;;12.13;45.17;94168.69;5031069;28;20257;-72
2024/01/14 11:04:50;;;;;;;31.33;18.97;;;;;;;12.25;44.91;94176.88;5030936;28;20675;-64
2024/01/14 11:07:17;;;;;;;27.97;20.83;;;;;;;12.23;44.77;94169.34;5030783;28;20187;-71
2024/01/14 11:09:45;;;;;;;28.73;19.83;;;;;;;12.09;44.90;94172.56;5030884;28;20632;-65
2024/01/14 11:12:18;;;;;;;30.83;19.50;;;;;;;11.91;45.01;94171.88;5030835;28;20184;-72
2024/01/14 11:14:49;;;;;;;29.17;20.03;;;;;;;11.76;45.00;94166.56;5030928;28;20199;-70
2024/01/14 11:17:31;;;;;;;29.73;19.47;;;;;;;11.68;44.93;94161.44;5030783;28;20222;-70
2024/01/14 11:19:59;;;;;;;30.20;19.77;;;;;;;11.64;44.96;94166.06;5030287;28;20202;-69
2024/01/14 11:22:26;;;;;;;29.70;18.87;;;;;;;11.62;44.57;94167.19;5030609;28;20683;-71